Time;durP1;ratioP1;P1;durP2;ratioP2;P2;SDS_P1;SDS_P2;PMS_P1;PMS_P2;Temp;Humidity;BMP_temperature;BMP_pressure;BME280_temperature;BME280_humidity;BME280_pressure;Samples;Min_cycle;Max_cycle;Signal;HPM_P1;HPM_P2
2023/12/06 00:00:09;;;;;;;1.67;1.33;;;3.50;98.20;;;;;;5030633;28;20841;-82
2023/12/06 00:02:36;;;;;;;1.67;1.40;;;3.50;98.20;;;;;;5028470;28;21133;-82
2023/12/06 00:05:04;;;;;;;1.70;1.40;;;3.50;98.20;;;;;;5031392;28;20958;-82
2023/12/06 00:07:31;;;;;;;1.60;1.40;;;3.50;98.20;;;;;;5034592;28;20565;-81
2023/12/06 00:09:59;;;;;;;1.70;1.50;;;3.50;98.20;;;;;;5035858;28;20452;-81
2023/12/06 00:12:26;;;;;;;1.63;1.30;;;3.50;98.20;;;;;;5036149;28;20478;-82
2023/12/06 00:14:52;;;;;;;1.60;1.40;;;3.50;98.20;;;;;;5033122;28;20468;-81
2023/12/06 00:17:19;;;;;;;1.63;1.40;;;3.50;98.20;;;;;;5029170;28;21046;-81
2023/12/06 00:19:46;;;;;;;1.67;1.30;;;3.50;98.20;;;;;;5033642;28;20493;-82
2023/12/06 00:22:14;;;;;;;1.63;1.40;;;3.50;98.20;;;;;;5025388;28;21169;-82
2023/12/06 00:24:41;;;;;;;1.60;1.40;;;3.50;98.20;;;;;;5039738;28;20459;-82
2023/12/06 00:27:08;;;;;;;1.63;1.40;;;3.50;98.20;;;;;;5038675;28;20488;-82
2023/12/06 00:29:35;;;;;;;1.60;1.40;;;3.50;98.20;;;;;;5038570;28;20466;-82
2023/12/06 00:32:02;;;;;;;1.67;1.40;;;3.50;98.20;;;;;;5035041;28;20482;-81
2023/12/06 00:34:29;;;;;;;1.67;1.40;;;3.50;98.20;;;;;;5039026;28;20455;-82
2023/12/06 00:36:55;;;;;;;1.63;1.40;;;3.40;98.20;;;;;;5028319;28;20557;-82
2023/12/06 00:39:23;;;;;;;1.67;1.40;;;3.40;98.20;;;;;;5029144;28;20534;-81
2023/12/06 00:41:50;;;;;;;1.63;1.40;;;3.40;98.20;;;;;;5025080;28;20487;-82
2023/12/06 00:44:17;;;;;;;1.63;1.40;;;3.40;98.20;;;;;;5030950;28;20456;-82
2023/12/06 00:46:44;;;;;;;1.67;1.40;;;3.40;98.20;;;;;;5020007;28;20495;-81
2023/12/06 00:49:11;;;;;;;1.63;1.40;;;3.40;98.20;;;;;;5029129;28;20456;-82
2023/12/06 00:51:38;;;;;;;1.60;1.40;;;3.40;98.20;;;;;;5022035;28;20494;-82
2023/12/06 00:54:05;;;;;;;1.60;1.37;;;3.40;98.20;;;;;;5031563;28;20465;-83
2023/12/06 00:56:33;;;;;;;1.63;1.40;;;3.40;98.20;;;;;;5025608;28;20485;-83
2023/12/06 00:59:00;;;;;;;1.60;1.40;;;3.40;98.20;;;;;;5038685;28;20489;-83
2023/12/06 01:01:27;;;;;;;1.67;1.30;;;3.30;98.20;;;;;;5024128;28;21171;-83
2023/12/06 01:03:53;;;;;;;1.67;1.40;;;3.30;98.20;;;;;;5025713;28;20947;-82
2023/12/06 01:06:20;;;;;;;1.67;1.40;;;3.20;98.20;;;;;;5014282;28;20856;-82
2023/12/06 01:08:49;;;;;;;1.63;1.33;;;3.20;98.20;;;;;;5024059;28;20486;-82
2023/12/06 01:11:15;;;;;;;1.60;1.30;;;3.20;98.20;;;;;;5020171;28;20477;-82
2023/12/06 01:13:44;;;;;;;1.60;1.40;;;3.20;98.20;;;;;;5037676;28;20456;-82
2023/12/06 01:16:11;;;;;;;2.47;2.27;;;3.20;98.20;;;;;;5018478;28;20479;-83
2023/12/06 01:18:38;;;;;;;1.63;1.40;;;3.20;98.20;;;;;;5024918;28;20468;-83
2023/12/06 01:21:05;;;;;;;1.63;1.40;;;3.20;98.20;;;;;;5017070;28;20495;-84
2023/12/06 01:23:32;;;;;;;1.63;1.40;;;3.20;98.20;;;;;;5035169;28;20462;-85
2023/12/06 01:26:02;;;;;;;1.60;1.30;;;3.20;98.20;;;;;;5019465;28;20481;-85
2023/12/06 01:28:29;;;;;;;1.60;1.50;;;3.20;98.20;;;;;;5022805;28;20526;-85
2023/12/06 01:30:57;;;;;;;1.60;1.40;;;3.20;98.20;;;;;;5014845;28;20462;-84
2023/12/06 01:33:23;;;;;;;1.67;1.40;;;3.10;98.20;;;;;;5039676;28;20457;-84
2023/12/06 01:35:50;;;;;;;1.70;1.50;;;3.10;98.20;;;;;;5006064;28;20512;-84
2023/12/06 01:38:17;;;;;;;1.63;1.40;;;3.20;98.20;;;;;;5034755;28;20649;-84
2023/12/06 01:40:44;;;;;;;1.60;1.40;;;3.20;98.20;;;;;;5025622;28;20519;-84
2023/12/06 01:43:11;;;;;;;1.70;1.50;;;3.10;98.20;;;;;;5015403;28;20478;-83
2023/12/06 01:45:38;;;;;;;1.60;1.40;;;3.10;98.20;;;;;;5025150;28;21001;-83
2023/12/06 01:48:08;;;;;;;3.50;3.30;;;3.10;98.20;;;;;;5019465;28;20470;-83
2023/12/06 01:50:38;;;;;;;1.63;1.40;;;3.10;98.20;;;;;;5014450;28;20466;-82
2023/12/06 01:53:05;;;;;;;1.70;1.50;;;3.10;98.20;;;;;;5018217;28;20958;-82
2023/12/06 01:55:32;;;;;;;1.67;1.40;;;3.10;98.20;;;;;;5021407;28;20479;-82
2023/12/06 01:57:59;;;;;;;1.63;1.40;;;3.10;98.20;;;;;;5026570;28;20514;-82
2023/12/06 02:00:26;;;;;;;1.60;1.40;;;3.10;98.20;;;;;;5025564;28;20490;-81
2023/12/06 02:02:53;;;;;;;3.87;2.37;;;3.10;98.20;;;;;;5019692;28;20481;-81
2023/12/06 02:05:22;;;;;;;5.00;4.70;;;3.00;98.20;;;;;;5026537;28;20474;-81
2023/12/06 02:07:50;;;;;;;1.63;1.40;;;3.00;98.20;;;;;;5033560;28;20566;-81
2023/12/06 02:10:17;;;;;;;1.67;1.40;;;3.00;98.20;;;;;;5031758;28;21025;-81
2023/12/06 02:12:44;;;;;;;1.70;1.50;;;3.00;98.20;;;;;;5029264;28;20475;-80
2023/12/06 02:15:12;;;;;;;2.80;2.60;;;3.00;98.20;;;;;;5026699;28;21179;-82
2023/12/06 02:17:39;;;;;;;1.70;1.50;;;3.00;98.20;;;;;;5019591;28;20572;-81
2023/12/06 02:20:08;;;;;;;1.70;1.50;;;2.90;98.20;;;;;;5027342;28;20949;-81
2023/12/06 02:22:37;;;;;;;1.70;1.50;;;2.90;98.20;;;;;;5013641;28;20475;-81
2023/12/06 02:25:05;;;;;;;1.60;1.40;;;2.90;98.20;;;;;;5022063;28;20970;-81
2023/12/06 02:27:33;;;;;;;1.70;1.50;;;2.90;98.20;;;;;;5027779;28;20646;-82
2023/12/06 02:30:00;;;;;;;1.67;1.50;;;2.90;98.20;;;;;;5026696;28;20456;-81
2023/12/06 02:32:27;;;;;;;1.70;1.50;;;2.90;98.20;;;;;;5021048;28;20482;-81
2023/12/06 02:34:56;;;;;;;1.60;1.40;;;2.90;98.20;;;;;;5028785;28;20547;-81
2023/12/06 02:37:24;;;;;;;1.63;1.40;;;2.80;98.20;;;;;;5026149;28;20481;-82
2023/12/06 02:39:52;;;;;;;1.70;1.57;;;2.80;98.20;;;;;;5025588;28;20463;-81
2023/12/06 02:42:19;;;;;;;1.60;1.40;;;2.80;98.20;;;;;;5032190;28;20474;-80
2023/12/06 02:44:47;;;;;;;1.70;1.50;;;2.80;98.20;;;;;;5027337;28;20455;-81
2023/12/06 02:47:15;;;;;;;1.60;1.40;;;2.80;98.20;;;;;;5023782;28;21039;-80
2023/12/06 02:49:41;;;;;;;2.27;2.07;;;2.80;98.20;;;;;;5028657;28;20458;-81
2023/12/06 02:52:08;;;;;;;1.63;1.40;;;2.80;98.20;;;;;;5027795;28;20555;-81
2023/12/06 02:54:35;;;;;;;1.70;1.40;;;2.80;98.20;;;;;;5029822;28;20455;-80
2023/12/06 02:57:02;;;;;;;3.10;2.87;;;2.80;98.20;;;;;;5029068;28;20492;-81
2023/12/06 02:59:28;;;;;;;1.67;1.40;;;2.80;98.20;;;;;;5035664;28;20447;-81
2023/12/06 03:01:57;;;;;;;1.63;1.50;;;2.80;98.20;;;;;;5029832;28;20491;-80
2023/12/06 03:04:23;;;;;;;1.67;1.50;;;2.80;98.20;;;;;;5032550;28;20455;-80
2023/12/06 03:06:50;;;;;;;1.70;1.60;;;2.80;98.20;;;;;;5019785;28;20494;-80
2023/12/06 03:09:17;;;;;;;1.67;1.40;;;2.80;98.20;;;;;;5035201;28;20490;-81
2023/12/06 03:11:44;;;;;;;1.60;1.40;;;2.70;98.20;;;;;;5024809;28;21012;-81
2023/12/06 03:14:10;;;;;;;1.67;1.40;;;2.80;98.20;;;;;;5025452;28;20555;-81
2023/12/06 03:16:37;;;;;;;1.67;1.40;;;2.70;98.20;;;;;;5021697;28;20845;-80
2023/12/06 03:19:05;;;;;;;1.63;1.40;;;2.70;98.20;;;;;;5034552;28;20463;-81
2023/12/06 03:21:32;;;;;;;1.67;1.40;;;2.80;98.20;;;;;;5025814;28;20482;-81
2023/12/06 03:23:58;;;;;;;1.63;1.40;;;2.80;98.20;;;;;;5039240;28;20470;-80
2023/12/06 03:26:25;;;;;;;1.70;1.60;;;2.80;98.20;;;;;;5024529;28;20490;-81
2023/12/06 03:28:52;;;;;;;1.67;1.50;;;2.80;98.20;;;;;;5038741;28;20462;-81
2023/12/06 03:31:20;;;;;;;1.70;1.50;;;2.80;98.20;;;;;;5025396;28;20913;-80
2023/12/06 03:33:46;;;;;;;1.67;1.50;;;2.80;98.20;;;;;;5041938;28;20455;-82
2023/12/06 03:36:15;;;;;;;1.70;1.40;;;2.80;98.20;;;;;;5022608;28;20483;-81
2023/12/06 03:38:42;;;;;;;1.67;1.50;;;2.70;98.20;;;;;;5040462;28;20832;-81
2023/12/06 03:41:09;;;;;;;1.63;1.40;;;2.70;98.20;;;;;;5020989;28;20510;-81
2023/12/06 03:43:36;;;;;;;1.63;1.40;;;2.70;98.20;;;;;;5033606;28;20490;-82
2023/12/06 03:46:03;;;;;;;1.63;1.43;;;2.70;98.20;;;;;;5016688;28;20497;-81
2023/12/06 03:48:30;;;;;;;1.67;1.40;;;2.70;98.20;;;;;;5028642;28;20845;-82
2023/12/06 03:50:57;;;;;;;1.70;1.40;;;2.70;98.20;;;;;;5023621;28;20463;-82
2023/12/06 03:55:54;;;;;;;1.70;1.50;;;2.70;98.20;;;;;;5049618;28;20478;-82
2023/12/06 03:58:22;;;;;;;1.60;1.30;;;2.70;98.20;;;;;;5065640;28;20462;-81
2023/12/06 04:00:48;;;;;;;1.60;1.40;;;2.70;98.20;;;;;;5051440;28;20477;-81
2023/12/06 04:03:15;;;;;;;1.70;1.50;;;2.70;98.20;;;;;;5039091;28;20523;-81
2023/12/06 04:05:43;;;;;;;1.63;1.40;;;2.70;98.20;;;;;;5018891;28;20474;-82
2023/12/06 04:08:11;;;;;;;1.67;1.40;;;2.70;98.20;;;;;;5012885;28;21037;-81
2023/12/06 04:10:38;;;;;;;1.63;1.40;;;2.70;98.20;;;;;;5010584;28;20463;-80
2023/12/06 04:13:06;;;;;;;1.67;1.40;;;2.70;98.20;;;;;;5011246;28;20510;-80
2023/12/06 04:15:33;;;;;;;1.60;1.40;;;2.70;98.20;;;;;;5015785;28;20480;-81
2023/12/06 04:18:00;;;;;;;1.67;1.40;;;2.70;98.20;;;;;;5010798;28;20475;-81
2023/12/06 04:20:27;;;;;;;1.70;1.40;;;2.80;98.20;;;;;;5017443;28;20579;-80
2023/12/06 04:22:54;;;;;;;1.87;1.73;;;2.80;98.20;;;;;;5035610;28;20544;-79
2023/12/06 04:25:20;;;;;;;1.70;1.40;;;2.80;98.20;;;;;;5029556;28;20487;-81
2023/12/06 04:27:47;;;;;;;1.70;1.50;;;2.80;98.20;;;;;;5031300;28;20561;-80
2023/12/06 04:30:16;;;;;;;1.70;1.50;;;2.80;98.20;;;;;;5030327;28;20470;-80
2023/12/06 04:32:43;;;;;;;1.70;1.50;;;2.80;98.20;;;;;;5026238;28;20478;-80
2023/12/06 04:35:11;;;;;;;1.70;1.40;;;2.80;98.20;;;;;;5030140;28;20566;-80
2023/12/06 04:37:38;;;;;;;1.63;1.40;;;2.80;98.20;;;;;;5028992;28;20487;-80
2023/12/06 04:40:06;;;;;;;1.70;1.50;;;2.80;98.20;;;;;;5028959;28;20457;-79
2023/12/06 04:42:33;;;;;;;1.67;1.40;;;2.80;98.20;;;;;;5026209;28;20497;-78
2023/12/06 04:45:00;;;;;;;1.67;1.40;;;2.90;98.20;;;;;;5026467;28;20514;-79
2023/12/06 04:47:28;;;;;;;1.67;1.40;;;2.90;98.20;;;;;;5027608;28;20545;-80
2023/12/06 04:49:55;;;;;;;1.63;1.30;;;2.90;98.20;;;;;;5028361;28;20555;-80
2023/12/06 04:52:24;;;;;;;1.63;1.40;;;2.90;98.20;;;;;;5027883;28;21158;-81
2023/12/06 04:54:51;;;;;;;1.63;1.40;;;2.90;98.20;;;;;;5027202;28;21005;-78
2023/12/06 04:57:18;;;;;;;1.63;1.40;;;2.90;98.20;;;;;;5021654;28;20479;-80
2023/12/06 04:59:44;;;;;;;1.67;1.40;;;2.90;98.20;;;;;;5031439;28;20550;-80
2023/12/06 05:02:11;;;;;;;1.60;1.37;;;2.90;98.20;;;;;;5030282;28;20561;-78
2023/12/06 05:04:39;;;;;;;1.67;1.40;;;2.90;98.20;;;;;;5030535;28;20488;-80
2023/12/06 05:07:06;;;;;;;1.63;1.40;;;2.90;98.20;;;;;;5027621;28;20470;-80
2023/12/06 05:09:33;;;;;;;1.70;1.50;;;3.00;98.20;;;;;;5030829;28;20463;-80
2023/12/06 05:12:00;;;;;;;1.70;1.50;;;3.00;98.20;;;;;;5021320;28;20554;-80
2023/12/06 05:14:26;;;;;;;2.17;1.97;;;3.00;98.20;;;;;;5031266;28;20578;-79
2023/12/06 05:16:53;;;;;;;1.70;1.53;;;3.00;98.20;;;;;;5020611;28;20479;-80
2023/12/06 05:19:20;;;;;;;1.67;1.40;;;3.00;98.20;;;;;;5032843;28;20459;-80
2023/12/06 05:21:48;;;;;;;1.70;1.40;;;3.00;98.20;;;;;;5026135;28;21024;-79
2023/12/06 05:24:15;;;;;;;1.70;1.40;;;3.00;98.20;;;;;;5036311;28;20496;-79
2023/12/06 05:26:42;;;;;;;1.70;1.60;;;3.10;98.20;;;;;;5022708;28;20505;-81
2023/12/06 05:29:09;;;;;;;1.70;1.50;;;3.10;98.20;;;;;;5035702;28;20719;-81
2023/12/06 05:31:36;;;;;;;1.60;1.40;;;3.10;98.20;;;;;;5021173;28;20488;-80
2023/12/06 05:34:04;;;;;;;1.67;1.40;;;3.10;98.20;;;;;;5025268;28;20488;-80
2023/12/06 05:36:30;;;;;;;1.67;1.40;;;3.10;98.20;;;;;;5023725;28;20896;-78
2023/12/06 05:38:59;;;;;;;6.63;6.03;;;3.10;98.20;;;;;;5036463;28;20973;-79
2023/12/06 05:41:26;;;;;;;1.60;1.37;;;3.10;98.20;;;;;;5023484;28;20496;-80
2023/12/06 05:44:04;;;;;;;1.63;1.40;;;3.10;98.20;;;;;;5037641;28;20505;-79
2023/12/06 05:46:31;;;;;;;1.60;1.33;;;3.10;98.20;;;;;;5024904;28;20481;-79
2023/12/06 05:48:58;;;;;;;1.67;1.40;;;3.10;98.20;;;;;;5036588;28;20464;-79
2023/12/06 05:51:28;;;;;;;1.70;1.50;;;3.10;98.20;;;;;;5024076;28;20481;-80
2023/12/06 05:54:05;;;;;;;1.70;1.60;;;3.10;98.20;;;;;;5039340;28;20487;-80
2023/12/06 05:56:46;;;;;;;1.70;1.50;;;3.10;98.20;;;;;;5025592;28;20498;-81
2023/12/06 05:59:14;;;;;;;1.63;1.47;;;3.10;98.20;;;;;;5033650;28;20835;-80
2023/12/06 06:01:41;;;;;;;1.70;1.50;;;3.10;98.20;;;;;;5022356;28;20507;-80
2023/12/06 06:04:12;;;;;;;1.63;1.30;;;3.10;98.20;;;;;;5039916;28;21029;-80
2023/12/06 06:06:40;;;;;;;1.67;1.40;;;3.10;98.20;;;;;;5024211;28;20474;-79
2023/12/06 06:09:10;;;;;;;2.57;2.37;;;3.20;98.20;;;;;;5038615;28;20451;-79
2023/12/06 06:11:37;;;;;;;1.63;1.30;;;3.20;98.20;;;;;;5022470;28;20478;-78
2023/12/06 06:14:03;;;;;;;1.70;1.40;;;3.20;98.20;;;;;;5036902;28;20484;-79
2023/12/06 06:16:30;;;;;;;2.30;2.10;;;3.20;98.20;;;;;;5019459;28;20483;-79
2023/12/06 06:18:57;;;;;;;1.70;1.40;;;3.20;98.20;;;;;;5019817;28;20473;-79
2023/12/06 06:21:24;;;;;;;1.60;1.40;;;3.20;98.20;;;;;;5025086;28;20478;-79
2023/12/06 06:23:50;;;;;;;1.67;1.40;;;3.20;98.20;;;;;;5039682;28;20537;-81
2023/12/06 06:26:19;;;;;;;1.70;1.40;;;3.20;98.20;;;;;;5015225;28;20482;-81
2023/12/06 06:28:46;;;;;;;1.70;1.40;;;3.20;98.20;;;;;;5020980;28;20490;-81
2023/12/06 06:31:12;;;;;;;1.60;1.30;;;3.20;98.20;;;;;;5022504;28;20477;-81
2023/12/06 06:33:39;;;;;;;2.83;2.63;;;3.30;98.20;;;;;;5035427;28;20537;-80
2023/12/06 06:36:10;;;;;;;1.70;1.60;;;3.30;98.20;;;;;;5026245;28;20501;-79
2023/12/06 06:38:37;;;;;;;1.67;1.40;;;3.30;98.20;;;;;;5036940;28;20835;-81
2023/12/06 06:41:04;;;;;;;1.70;1.50;;;3.30;98.20;;;;;;5028120;28;21102;-80
2023/12/06 06:43:33;;;;;;;1.70;1.50;;;3.30;98.20;;;;;;5032538;28;20498;-80
2023/12/06 06:46:00;;;;;;;1.70;1.47;;;3.30;98.20;;;;;;5018794;28;21017;-80
2023/12/06 06:48:27;;;;;;;1.63;1.40;;;3.30;98.20;;;;;;5043976;28;20478;-80
2023/12/06 06:50:54;;;;;;;1.63;1.40;;;3.30;98.20;;;;;;5016911;28;20982;-80
2023/12/06 06:53:21;;;;;;;1.63;1.40;;;3.40;98.20;;;;;;5033302;28;20935;-80
2023/12/06 06:55:48;;;;;;;1.70;1.50;;;3.40;98.20;;;;;;5016785;28;20475;-80
2023/12/06 06:58:20;;;;;;;1.67;1.40;;;3.40;98.20;;;;;;5041841;28;20475;-80
2023/12/06 07:00:48;;;;;;;1.70;1.40;;;3.40;98.20;;;;;;5030213;28;20497;-80
2023/12/06 07:03:15;;;;;;;1.63;1.40;;;3.40;98.20;;;;;;5016746;28;20575;-80
2023/12/06 07:05:42;;;;;;;6.87;6.30;;;3.40;98.20;;;;;;5028130;28;20548;-79
2023/12/06 07:08:10;;;;;;;1.70;1.50;;;3.40;98.20;;;;;;5015192;28;21109;-80
2023/12/06 07:10:38;;;;;;;1.70;1.50;;;3.40;98.20;;;;;;5028568;28;20468;-77
2023/12/06 07:13:05;;;;;;;1.63;1.37;;;3.40;98.20;;;;;;5024165;28;20582;-77
2023/12/06 07:15:32;;;;;;;1.63;1.30;;;3.40;98.20;;;;;;5028976;28;20491;-77
2023/12/06 07:18:01;;;;;;;1.67;1.30;;;3.40;98.20;;;;;;5010012;28;20840;-77
2023/12/06 07:20:28;;;;;;;1.70;1.50;;;3.40;98.20;;;;;;5025220;28;20463;-76
2023/12/06 07:22:57;;;;;;;1.63;1.30;;;3.50;98.20;;;;;;5021786;28;20574;-77
2023/12/06 07:25:23;;;;;;;1.63;1.37;;;3.50;98.20;;;;;;5025829;28;20483;-77
2023/12/06 07:27:50;;;;;;;1.60;1.40;;;3.50;98.20;;;;;;5022309;28;20522;-76
2023/12/06 07:30:18;;;;;;;1.63;1.30;;;3.50;98.20;;;;;;5013229;28;20475;-76
2023/12/06 07:32:45;;;;;;;4.63;3.97;;;3.50;98.20;;;;;;5023436;28;20483;-78
2023/12/06 07:35:13;;;;;;;1.60;1.30;;;3.50;98.20;;;;;;5022106;28;20510;-76
2023/12/06 07:37:41;;;;;;;1.70;1.60;;;3.50;98.20;;;;;;5022816;28;20596;-78
2023/12/06 07:40:11;;;;;;;1.70;1.50;;;3.50;98.20;;;;;;5023977;28;20584;-76
2023/12/06 07:42:38;;;;;;;1.60;1.40;;;3.50;98.20;;;;;;5027417;28;20832;-78
2023/12/06 07:45:05;;;;;;;1.70;1.60;;;3.50;98.20;;;;;;5023450;28;20491;-76
2023/12/06 07:47:32;;;;;;;1.70;1.47;;;3.50;98.20;;;;;;5019849;28;20947;-77
2023/12/06 07:49:59;;;;;;;1.70;1.50;;;3.50;98.20;;;;;;5021755;28;20469;-78
2023/12/06 07:52:27;;;;;;;1.70;1.50;;;3.60;98.20;;;;;;5008882;28;20504;-75
2023/12/06 07:54:54;;;;;;;1.60;1.40;;;3.60;98.20;;;;;;5019203;28;20487;-77
2023/12/06 07:57:23;;;;;;;1.70;1.50;;;3.60;98.20;;;;;;5023869;28;20647;-76
2023/12/06 07:59:50;;;;;;;1.63;1.40;;;3.60;98.20;;;;;;5017023;28;20770;-78
2023/12/06 08:02:17;;;;;;;1.70;1.60;;;3.60;98.20;;;;;;5021095;28;20478;-77
2023/12/06 08:04:43;;;;;;;1.60;1.40;;;3.60;98.20;;;;;;5026079;28;20494;-78
2023/12/06 08:07:10;;;;;;;1.60;1.40;;;3.60;98.20;;;;;;5018073;28;20488;-77
2023/12/06 08:09:39;;;;;;;1.70;1.50;;;3.70;98.20;;;;;;5030702;28;20862;-78
2023/12/06 08:12:07;;;;;;;1.70;1.50;;;3.70;98.20;;;;;;5020778;28;20935;-78
2023/12/06 08:14:34;;;;;;;1.60;1.30;;;3.70;98.20;;;;;;5023233;28;20553;-77
2023/12/06 08:17:01;;;;;;;1.67;1.40;;;3.70;98.20;;;;;;5019549;28;20491;-79
2023/12/06 08:19:27;;;;;;;1.60;1.30;;;3.70;98.20;;;;;;5030080;28;20892;-77
2023/12/06 08:21:57;;;;;;;1.67;1.40;;;3.70;98.20;;;;;;5012088;28;20483;-76
2023/12/06 08:24:24;;;;;;;1.60;1.30;;;3.70;98.20;;;;;;5018930;28;20546;-75
2023/12/06 08:26:52;;;;;;;1.60;1.30;;;3.70;98.20;;;;;;5013418;28;20851;-76
2023/12/06 08:29:19;;;;;;;1.70;1.60;;;3.70;98.20;;;;;;5025328;28;20468;-75
2023/12/06 08:31:46;;;;;;;1.70;1.50;;;3.80;98.20;;;;;;5015224;28;21062;-75
2023/12/06 08:34:13;;;;;;;1.63;1.30;;;3.80;98.20;;;;;;5024026;28;20822;-76
2023/12/06 08:36:40;;;;;;;1.67;1.43;;;3.80;98.20;;;;;;5009754;28;20488;-75
2023/12/06 08:39:06;;;;;;;1.70;1.40;;;3.80;98.20;;;;;;5017241;28;20473;-75
2023/12/06 08:41:33;;;;;;;1.70;1.50;;;3.80;98.20;;;;;;5016702;28;20565;-76
2023/12/06 08:44:04;;;;;;;1.70;1.60;;;3.80;98.20;;;;;;5024459;28;20499;-75
2023/12/06 08:46:31;;;;;;;1.70;1.40;;;3.90;98.20;;;;;;5011108;28;20866;-75
2023/12/06 08:48:58;;;;;;;1.87;1.77;;;3.90;98.20;;;;;;5023372;28;20467;-76
2023/12/06 08:51:25;;;;;;;1.63;1.40;;;3.90;98.20;;;;;;5012111;28;20988;-75
2023/12/06 08:53:52;;;;;;;1.60;1.30;;;3.90;98.20;;;;;;5025249;28;20484;-75
2023/12/06 08:56:18;;;;;;;1.60;1.30;;;3.90;98.20;;;;;;5012599;28;20501;-76
2023/12/06 08:58:45;;;;;;;1.60;1.30;;;4.00;98.20;;;;;;5028458;28;20938;-75
2023/12/06 09:01:14;;;;;;;1.63;1.43;;;4.00;98.20;;;;;;5014028;28;20474;-75
2023/12/06 09:03:40;;;;;;;1.90;1.70;;;4.00;98.20;;;;;;5027890;28;20495;-75
2023/12/06 09:06:08;;;;;;;1.67;1.40;;;4.00;98.20;;;;;;5011476;28;20471;-75
2023/12/06 09:08:35;;;;;;;1.70;1.40;;;4.00;98.20;;;;;;5029096;28;20468;-76
2023/12/06 09:11:02;;;;;;;1.67;1.40;;;4.10;98.20;;;;;;5007656;28;21078;-75
2023/12/06 09:13:30;;;;;;;1.70;1.53;;;4.10;98.20;;;;;;5032729;28;20454;-75
2023/12/06 09:16:03;;;;;;;1.63;1.40;;;4.10;98.20;;;;;;5012037;28;20976;-76
2023/12/06 09:18:32;;;;;;;1.63;1.40;;;4.10;98.20;;;;;;5036456;28;20490;-76
2023/12/06 09:20:59;;;;;;;1.70;1.40;;;4.20;98.20;;;;;;5012683;28;20474;-75
2023/12/06 09:23:25;;;;;;;1.70;1.40;;;4.20;98.20;;;;;;5038456;28;21063;-75
2023/12/06 09:25:52;;;;;;;1.60;1.30;;;4.20;98.20;;;;;;5016102;28;20467;-75
2023/12/06 09:28:19;;;;;;;1.70;1.37;;;4.20;98.20;;;;;;5036615;28;20506;-76
2023/12/06 09:30:46;;;;;;;1.60;1.30;;;4.30;98.20;;;;;;5019928;28;20475;-75
2023/12/06 09:33:13;;;;;;;1.67;1.40;;;4.30;98.20;;;;;;5020867;28;20575;-75
2023/12/06 09:35:41;;;;;;;1.60;1.33;;;4.30;98.20;;;;;;5024625;28;20498;-75
2023/12/06 09:38:07;;;;;;;1.67;1.30;;;4.30;98.20;;;;;;5027352;28;21064;-74
2023/12/06 09:40:35;;;;;;;1.63;1.33;;;4.30;98.20;;;;;;5025268;28;20535;-76
2023/12/06 09:43:03;;;;;;;1.60;1.30;;;4.30;98.20;;;;;;5028153;28;21044;-75
2023/12/06 09:45:32;;;;;;;1.60;1.40;;;4.40;98.20;;;;;;5026626;28;20869;-75
2023/12/06 09:48:03;;;;;;;1.67;1.37;;;4.40;98.20;;;;;;5015387;28;20492;-76
2023/12/06 09:50:31;;;;;;;1.70;1.47;;;4.40;98.20;;;;;;5033862;28;20470;-76
2023/12/06 09:53:02;;;;;;;1.63;1.33;;;4.40;98.20;;;;;;5041224;28;20477;-76
2023/12/06 09:55:37;;;;;;;1.60;1.30;;;4.40;98.20;;;;;;5036585;28;20534;-76
2023/12/06 09:58:04;;;;;;;1.60;1.30;;;4.40;98.20;;;;;;5040370;28;20485;-76
2023/12/06 10:00:31;;;;;;;1.93;1.73;;;4.50;98.20;;;;;;5033019;28;20574;-76
2023/12/06 10:02:57;;;;;;;1.80;1.63;;;4.50;98.20;;;;;;5040547;28;20582;-76
2023/12/06 10:05:24;;;;;;;1.70;1.40;;;4.50;98.20;;;;;;5034522;28;20602;-76
2023/12/06 10:07:52;;;;;;;1.70;1.43;;;4.60;98.20;;;;;;5027436;28;20479;-76
2023/12/06 10:10:22;;;;;;;2.03;1.83;;;4.60;98.20;;;;;;5037440;28;20552;-77
2023/12/06 10:12:50;;;;;;;1.60;1.30;;;4.60;98.20;;;;;;5031744;28;20502;-77
2023/12/06 10:15:17;;;;;;;1.70;1.40;;;4.70;98.20;;;;;;5032121;28;20495;-76
2023/12/06 10:17:45;;;;;;;1.63;1.30;;;4.70;98.20;;;;;;5014527;28;20807;-76
2023/12/06 10:20:12;;;;;;;1.60;1.30;;;4.70;98.20;;;;;;5031123;28;20816;-76
2023/12/06 10:22:40;;;;;;;1.67;1.30;;;4.70;98.20;;;;;;5015827;28;21059;-76
2023/12/06 10:25:09;;;;;;;1.70;1.40;;;4.80;98.20;;;;;;5031917;28;20495;-77
2023/12/06 10:27:37;;;;;;;1.63;1.30;;;4.80;98.20;;;;;;5030115;28;20501;-77
2023/12/06 10:30:05;;;;;;;1.60;1.30;;;4.80;98.20;;;;;;5034763;28;20455;-77
2023/12/06 10:32:34;;;;;;;1.60;1.30;;;4.80;98.20;;;;;;5030302;28;20979;-76
2023/12/06 10:35:05;;;;;;;1.70;1.50;;;4.80;98.20;;;;;;5031179;28;20523;-76
2023/12/06 10:37:33;;;;;;;1.60;1.30;;;4.90;98.20;;;;;;5033502;28;20548;-76
2023/12/06 10:40:09;;;;;;;1.67;1.40;;;4.90;98.20;;;;;;5030626;28;20499;-76
2023/12/06 10:42:41;;;;;;;1.67;1.33;;;4.90;98.20;;;;;;5020320;28;20554;-77
2023/12/06 10:45:11;;;;;;;1.63;1.30;;;4.90;98.20;;;;;;5029418;28;20472;-76
2023/12/06 10:47:40;;;;;;;1.60;1.30;;;4.90;98.20;;;;;;5035320;28;20576;-77
2023/12/06 10:50:10;;;;;;;1.60;1.27;;;5.00;98.20;;;;;;5031098;28;20483;-77
2023/12/06 10:52:38;;;;;;;1.60;1.30;;;5.00;98.20;;;;;;5031918;28;20528;-77
2023/12/06 10:55:06;;;;;;;1.60;1.23;;;5.00;98.20;;;;;;5027352;28;20486;-75
2023/12/06 10:57:34;;;;;;;1.70;1.40;;;5.00;98.20;;;;;;5028749;28;20489;-77
2023/12/06 11:00:03;;;;;;;1.60;1.30;;;5.00;98.20;;;;;;5026276;28;20587;-74
2023/12/06 11:02:30;;;;;;;1.60;1.30;;;5.00;98.20;;;;;;5014685;28;20771;-76
2023/12/06 11:05:05;;;;;;;1.60;1.30;;;5.00;98.20;;;;;;5024905;28;20527;-75
2023/12/06 11:07:48;;;;;;;1.60;1.30;;;5.10;98.20;;;;;;5012031;28;20487;-75
2023/12/06 11:10:24;;;;;;;1.60;1.30;;;5.10;98.20;;;;;;5022593;28;20529;-76
2023/12/06 11:13:08;;;;;;;1.60;1.30;;;5.10;98.20;;;;;;5009603;28;20488;-76
2023/12/06 11:15:48;;;;;;;1.63;1.30;;;5.20;98.20;;;;;;5029928;28;20483;-74
2023/12/06 11:18:20;;;;;;;2.23;2.03;;;5.20;98.20;;;;;;5016574;28;20614;-78
2023/12/06 11:20:48;;;;;;;1.60;1.30;;;5.20;98.20;;;;;;5026301;28;20992;-75
2023/12/06 11:23:19;;;;;;;1.60;1.20;;;5.20;98.20;;;;;;5029606;28;20513;-76
2023/12/06 11:25:51;;;;;;;1.70;1.37;;;5.30;98.20;;;;;;5029239;28;20473;-77
2023/12/06 11:28:24;;;;;;;1.67;1.30;;;5.30;98.20;;;;;;5013894;28;20463;-76
2023/12/06 11:30:59;;;;;;;1.60;1.20;;;5.30;98.20;;;;;;5013230;28;20530;-76
2023/12/06 11:33:30;;;;;;;1.60;1.20;;;5.30;98.20;;;;;;5012192;28;20557;-75
2023/12/06 11:36:03;;;;;;;1.60;1.30;;;5.40;98.20;;;;;;5013759;28;20468;-76
2023/12/06 11:38:34;;;;;;;1.60;1.20;;;5.40;98.20;;;;;;5031237;28;20474;-76
2023/12/06 11:41:02;;;;;;;1.60;1.30;;;5.40;98.20;;;;;;5010232;28;20473;-77
2023/12/06 11:43:33;;;;;;;1.70;1.40;;;5.40;98.20;;;;;;5033696;28;20687;-74
2023/12/06 11:46:05;;;;;;;1.70;1.30;;;5.40;98.20;;;;;;5008616;28;20578;-76
2023/12/06 11:48:35;;;;;;;1.60;1.20;;;5.40;98.20;;;;;;5015583;28;20538;-75
2023/12/06 11:51:03;;;;;;;1.67;1.30;;;5.50;98.20;;;;;;5009495;28;20500;-75
2023/12/06 11:53:31;;;;;;;1.70;1.40;;;5.50;98.20;;;;;;5023851;28;20877;-75
2023/12/06 11:55:58;;;;;;;1.60;1.30;;;5.50;98.20;;;;;;5009233;28;20480;-75
2023/12/06 11:58:31;;;;;;;1.60;1.30;;;5.50;98.20;;;;;;5032356;28;21050;-75
2023/12/06 12:01:01;;;;;;;1.60;1.20;;;5.60;98.20;;;;;;5011031;28;20475;-75
2023/12/06 12:03:32;;;;;;;1.63;1.30;;;5.60;98.20;;;;;;5025706;28;20581;-75
2023/12/06 12:06:01;;;;;;;1.70;1.43;;;5.60;98.20;;;;;;5010862;28;20466;-75
2023/12/06 12:08:29;;;;;;;1.60;1.20;;;5.70;98.20;;;;;;5034973;28;20475;-75
2023/12/06 12:10:58;;;;;;;1.67;1.30;;;5.70;98.20;;;;;;5012145;28;20574;-75
2023/12/06 12:13:26;;;;;;;1.63;1.30;;;5.80;98.20;;;;;;5035693;28;20565;-74
2023/12/06 12:15:55;;;;;;;1.60;1.20;;;5.80;98.20;;;;;;5010529;28;20478;-75
2023/12/06 12:18:23;;;;;;;1.70;1.40;;;5.90;98.20;;;;;;5035414;28;20870;-75
2023/12/06 12:20:51;;;;;;;1.63;1.20;;;6.00;98.20;;;;;;5015328;28;21504;-75
2023/12/06 12:23:19;;;;;;;1.60;1.20;;;6.00;98.20;;;;;;5030349;28;20985;-78
2023/12/06 12:25:47;;;;;;;1.70;1.27;;;6.00;98.20;;;;;;5020564;28;20522;-76
2023/12/06 12:28:17;;;;;;;1.60;1.20;;;6.10;98.20;;;;;;5010742;28;20575;-77
2023/12/06 12:30:46;;;;;;;1.67;1.37;;;6.20;98.20;;;;;;5023984;28;20521;-76
2023/12/06 12:33:16;;;;;;;1.60;1.20;;;6.30;98.20;;;;;;5009163;28;20578;-75
2023/12/06 12:35:43;;;;;;;1.70;1.53;;;6.30;98.20;;;;;;5018552;28;20503;-75
2023/12/06 12:38:12;;;;;;;1.60;1.20;;;6.50;98.20;;;;;;5022666;28;20479;-74
2023/12/06 12:40:43;;;;;;;1.70;1.30;;;6.60;98.20;;;;;;5017575;28;20984;-76
2023/12/06 12:43:11;;;;;;;1.70;1.20;;;6.70;98.20;;;;;;5015306;28;20633;-75
2023/12/06 12:45:39;;;;;;;1.60;1.20;;;6.90;98.20;;;;;;5013253;28;21070;-76
2023/12/06 12:48:07;;;;;;;1.60;1.20;;;7.10;98.20;;;;;;5024087;28;20474;-76
2023/12/06 12:50:34;;;;;;;1.60;1.20;;;7.20;98.20;;;;;;5015256;28;20726;-76
2023/12/06 12:53:02;;;;;;;1.60;1.20;;;7.40;98.20;;;;;;5014437;28;20534;-76
2023/12/06 12:55:30;;;;;;;1.60;1.20;;;7.50;98.20;;;;;;5019071;28;20487;-76
2023/12/06 12:57:58;;;;;;;1.67;1.30;;;7.60;98.20;;;;;;5019602;28;20490;-75
2023/12/06 13:00:26;;;;;;;1.70;1.20;;;7.50;98.20;;;;;;5018373;28;20463;-75
2023/12/06 13:02:56;;;;;;;1.60;1.20;;;7.50;98.20;;;;;;5021266;28;20492;-77